Time;durP1;ratioP1;P1;durP2;ratioP2;P2;SDS_P1;SDS_P2;PMS_P1;PMS_P2;Temp;Humidity;BMP_temperature;BMP_pressure;BME280_temperature;BME280_humidity;BME280_pressure;Samples;Min_cycle;Max_cycle;Signal;HPM_P1;HPM_P2
2022/09/12 00:01:05;;;;;;;4.72;0.85;;;14.10;99.90;;;;;;4146285;28;20046;-65
2022/09/12 00:03:06;;;;;;;1.65;0.30;;;14.10;99.90;;;;;;4145158;28;20536;-65
2022/09/12 00:05:07;;;;;;;2.20;0.43;;;14.10;99.90;;;;;;4146763;28;20065;-65
2022/09/12 00:07:08;;;;;;;0.95;0.52;;;14.10;99.90;;;;;;4145054;28;20467;-65
2022/09/12 00:09:12;;;;;;;1.42;0.47;;;14.10;99.90;;;;;;4146229;28;20042;-64
2022/09/12 00:11:14;;;;;;;1.47;0.50;;;14.10;99.90;;;;;;4145262;28;20080;-65
2022/09/12 00:13:15;;;;;;;2.55;0.47;;;14.10;99.90;;;;;;4146121;28;20079;-65
2022/09/12 00:15:16;;;;;;;2.42;0.50;;;14.10;99.90;;;;;;4145647;28;20060;-65
2022/09/12 00:17:18;;;;;;;3.00;0.50;;;14.10;99.90;;;;;;4145348;28;20034;-66
2022/09/12 00:19:19;;;;;;;4.03;0.70;;;14.10;99.90;;;;;;4145948;28;20072;-65
2022/09/12 00:21:21;;;;;;;1.05;0.40;;;14.20;99.90;;;;;;4145100;28;20104;-66
2022/09/12 00:23:22;;;;;;;2.40;0.50;;;14.20;99.90;;;;;;4146147;28;20132;-66
2022/09/12 00:25:23;;;;;;;1.20;0.32;;;14.20;99.90;;;;;;4145137;28;20041;-65
2022/09/12 00:27:24;;;;;;;1.27;0.40;;;14.30;99.90;;;;;;4146029;28;20033;-66
2022/09/12 00:29:26;;;;;;;0.97;0.50;;;14.30;99.90;;;;;;4145697;28;20549;-65
2022/09/12 00:31:27;;;;;;;1.60;0.50;;;14.30;99.90;;;;;;4146193;28;20033;-66
2022/09/12 00:33:28;;;;;;;1.53;0.50;;;14.30;99.90;;;;;;4144700;28;20453;-66
2022/09/12 00:35:30;;;;;;;2.05;0.50;;;14.30;99.90;;;;;;4146098;28;20092;-66
2022/09/12 00:37:31;;;;;;;0.73;0.50;;;14.30;99.90;;;;;;4142654;28;20882;-66
2022/09/12 00:39:32;;;;;;;1.70;0.47;;;14.30;99.90;;;;;;4146068;28;20046;-69
2022/09/12 00:41:36;;;;;;;1.27;0.50;;;14.30;99.90;;;;;;4143196;28;20030;-67
2022/09/12 00:43:43;;;;;;;0.95;0.50;;;14.30;99.90;;;;;;4145512;28;20548;-67
2022/09/12 00:45:44;;;;;;;0.73;0.40;;;14.30;99.90;;;;;;4144781;28;20029;-72
2022/09/12 00:47:45;;;;;;;2.37;0.63;;;14.30;99.90;;;;;;4143809;28;20022;-67
2022/09/12 00:49:58;;;;;;;0.60;0.52;;;14.20;99.90;;;;;;4144346;28;20088;-66
2022/09/12 00:52:36;;;;;;;1.90;0.40;;;14.30;99.90;;;;;;4143106;28;20100;-67
2022/09/12 00:54:44;;;;;;;0.68;0.35;;;14.30;99.90;;;;;;4132640;28;20042;-67
2022/09/12 00:56:48;;;;;;;0.60;0.50;;;14.30;99.90;;;;;;4145843;28;20088;-69
2022/09/12 00:59:13;;;;;;;0.80;0.50;;;14.20;99.90;;;;;;4143974;28;20042;-69
2022/09/12 01:01:14;;;;;;;1.05;0.50;;;14.30;99.90;;;;;;4143659;28;20042;-68
2022/09/12 01:03:18;;;;;;;0.98;0.40;;;14.30;99.90;;;;;;4143242;28;20429;-66
2022/09/12 01:05:21;;;;;;;1.77;0.40;;;14.30;99.90;;;;;;4146212;28;20375;-68
2022/09/12 01:07:22;;;;;;;3.30;0.55;;;14.40;99.90;;;;;;4143419;28;20026;-69
2022/09/12 01:09:25;;;;;;;2.33;0.20;;;14.40;99.90;;;;;;4145454;28;20042;-67
2022/09/12 01:11:27;;;;;;;1.23;0.50;;;14.40;99.90;;;;;;4145004;28;20084;-68
2022/09/12 01:13:28;;;;;;;0.38;0.30;;;14.40;99.90;;;;;;4144859;28;20088;-70
2022/09/12 01:15:30;;;;;;;1.40;0.50;;;14.40;99.90;;;;;;4145452;28;20096;-70
2022/09/12 01:17:59;;;;;;;0.47;0.28;;;14.40;99.90;;;;;;4144276;28;20055;-66
2022/09/12 01:20:19;;;;;;;2.38;0.40;;;14.50;99.90;;;;;;4144876;28;20025;-69
2022/09/12 01:22:48;;;;;;;4.65;0.50;;;14.50;99.90;;;;;;4144785;28;20425;-66
2022/09/12 01:25:16;;;;;;;0.70;0.30;;;14.50;99.90;;;;;;4144358;28;20355;-69
2022/09/12 01:27:45;;;;;;;0.63;0.40;;;14.50;99.90;;;;;;4145674;28;20445;-66
2022/09/12 01:29:57;;;;;;;0.32;0.32;;;14.50;99.90;;;;;;4144632;28;20490;-68
2022/09/12 01:32:22;;;;;;;0.80;0.50;;;14.50;99.90;;;;;;4145466;28;20042;-66
2022/09/12 01:34:31;;;;;;;1.92;1.40;;;14.40;99.90;;;;;;4144714;28;20855;-68
2022/09/12 01:37:14;;;;;;;1.00;0.38;;;14.40;99.90;;;;;;4145378;28;20030;-68
2022/09/12 01:39:42;;;;;;;0.40;0.40;;;14.30;99.90;;;;;;4144336;28;20437;-72
2022/09/12 01:41:55;;;;;;;0.70;0.40;;;14.30;99.90;;;;;;4144717;28;20030;-67
2022/09/12 01:44:14;;;;;;;2.00;0.65;;;14.30;99.90;;;;;;4144741;28;20033;-69
2022/09/12 01:46:26;;;;;;;3.05;0.40;;;14.30;99.90;;;;;;4143010;28;20046;-67
2022/09/12 01:48:45;;;;;;;1.38;0.57;;;14.30;99.90;;;;;;4144780;28;20095;-67
2022/09/12 01:50:53;;;;;;;3.35;0.60;;;14.40;99.90;;;;;;4142875;28;20068;-67
2022/09/12 01:53:12;;;;;;;0.70;0.40;;;14.40;99.90;;;;;;4144593;28;20042;-67
2022/09/12 01:55:40;;;;;;;0.90;0.50;;;14.40;99.90;;;;;;4144103;28;20030;-66
2022/09/12 01:57:57;;;;;;;0.68;0.45;;;14.40;99.90;;;;;;4142506;28;20088;-66
2022/09/12 02:00:08;;;;;;;5.45;0.60;;;14.40;99.90;;;;;;4143794;28;20029;-69
2022/09/12 02:02:17;;;;;;;0.50;0.45;;;14.40;99.90;;;;;;4145343;28;20018;-66
2022/09/12 02:04:39;;;;;;;1.73;0.60;;;14.40;99.90;;;;;;4144056;28;20046;-65
2022/09/12 02:06:51;;;;;;;1.38;0.68;;;14.40;99.90;;;;;;4145088;28;20460;-65
2022/09/12 02:08:57;;;;;;;0.82;0.65;;;14.40;99.90;;;;;;4144013;28;20076;-66
2022/09/12 02:11:10;;;;;;;0.43;0.40;;;14.40;99.90;;;;;;4145812;28;20116;-68
2022/09/12 02:13:37;;;;;;;2.08;0.50;;;14.40;99.90;;;;;;4146596;28;20480;-69
2022/09/12 02:15:48;;;;;;;4.28;0.60;;;14.40;99.90;;;;;;4147897;28;20060;-70
2022/09/12 02:17:50;;;;;;;1.92;0.60;;;14.40;99.90;;;;;;4145489;28;20069;-71
2022/09/12 02:19:59;;;;;;;3.88;0.65;;;14.40;99.90;;;;;;4148071;28;20038;-67
2022/09/12 02:22:03;;;;;;;0.90;0.43;;;14.40;99.90;;;;;;4146575;28;20433;-66
2022/09/12 02:24:08;;;;;;;2.55;0.57;;;14.50;99.90;;;;;;4147899;28;20104;-66
2022/09/12 02:26:17;;;;;;;1.20;0.70;;;14.40;99.90;;;;;;4146711;28;20080;-66
2022/09/12 02:28:26;;;;;;;4.20;1.13;;;14.50;99.90;;;;;;4147547;28;20438;-65
2022/09/12 02:30:32;;;;;;;10.88;1.30;;;14.50;99.90;;;;;;4147000;28;20428;-66
2022/09/12 02:32:50;;;;;;;2.20;0.60;;;14.50;99.90;;;;;;4147832;28;20030;-66
2022/09/12 02:35:32;;;;;;;1.85;0.50;;;14.50;99.90;;;;;;4146790;28;20054;-67
2022/09/12 02:37:43;;;;;;;6.60;1.08;;;14.50;99.90;;;;;;4147030;28;20096;-69
2022/09/12 02:39:44;;;;;;;1.38;0.70;;;14.60;99.90;;;;;;4146634;28;20492;-66
2022/09/12 02:41:49;;;;;;;0.93;0.60;;;14.60;99.90;;;;;;4147470;28;20037;-67
2022/09/12 02:43:51;;;;;;;1.30;0.50;;;14.60;99.90;;;;;;4145963;28;20076;-69
2022/09/12 02:45:53;;;;;;;1.77;0.52;;;14.60;99.90;;;;;;4147297;28;20025;-65
2022/09/12 02:48:22;;;;;;;1.75;0.50;;;14.60;99.90;;;;;;4145146;28;20498;-67
2022/09/12 02:50:23;;;;;;;1.52;0.47;;;14.60;99.90;;;;;;4147337;28;20077;-66
2022/09/12 02:52:27;;;;;;;1.67;0.70;;;14.60;99.90;;;;;;4145608;28;20054;-66
2022/09/12 02:54:29;;;;;;;1.40;0.55;;;14.60;99.90;;;;;;4146667;28;20029;-67
2022/09/12 02:56:31;;;;;;;3.15;0.80;;;14.60;99.90;;;;;;4145954;28;20478;-65
2022/09/12 02:58:33;;;;;;;1.92;0.90;;;14.70;99.90;;;;;;4147422;28;20545;-66
2022/09/12 03:00:44;;;;;;;5.22;1.30;;;14.70;99.90;;;;;;4146285;28;20096;-67
2022/09/12 03:02:57;;;;;;;1.10;0.98;;;14.70;99.90;;;;;;4147419;28;20045;-67
2022/09/12 03:05:23;;;;;;;2.92;1.10;;;14.70;99.90;;;;;;4146345;28;20038;-69
2022/09/12 03:08:09;;;;;;;2.15;0.98;;;14.70;99.90;;;;;;4147307;28;20092;-67
2022/09/12 03:10:17;;;;;;;1.10;1.00;;;14.70;99.90;;;;;;4146118;28;20458;-68
2022/09/12 03:12:56;;;;;;;1.25;1.00;;;14.70;99.90;;;;;;4146601;28;20030;-68
2022/09/12 03:15:14;;;;;;;1.75;1.02;;;14.70;99.90;;;;;;4146665;28;20030;-71
2022/09/12 03:17:51;;;;;;;3.70;1.30;;;14.80;99.90;;;;;;4129649;28;20034;-63
2022/09/12 03:20:02;;;;;;;1.95;1.25;;;14.80;99.90;;;;;;4130614;28;20438;-66
2022/09/12 03:22:25;;;;;;;;;;;14.80;99.90;;;;;;4130080;28;20105;-69
2022/09/12 03:24:33;;;;;;;3.35;1.27;;;14.80;99.90;;;;;;4130286;28;19910;-64
2022/09/12 03:26:47;;;;;;;1.80;1.50;;;14.90;99.90;;;;;;4129464;28;20089;-66
2022/09/12 03:28:49;;;;;;;1.98;1.70;;;14.90;99.90;;;;;;4131019;28;20042;-67
2022/09/12 03:30:53;;;;;;;2.35;1.77;;;14.90;99.90;;;;;;4129898;28;20022;-63
2022/09/12 03:32:54;;;;;;;3.42;1.65;;;14.80;99.90;;;;;;4130572;28;20030;-69
2022/09/12 03:34:55;;;;;;;1.65;1.55;;;14.80;99.90;;;;;;4129547;28;20479;-64
2022/09/12 03:36:57;;;;;;;3.40;2.22;;;14.70;99.90;;;;;;4130418;28;20030;-67
2022/09/12 03:38:58;;;;;;;1.70;1.58;;;14.70;99.90;;;;;;4129266;28;20058;-64
2022/09/12 03:41:00;;;;;;;3.63;1.80;;;14.70;99.90;;;;;;4136381;28;20041;-68
2022/09/12 03:43:01;;;;;;;2.17;1.95;;;14.60;99.90;;;;;;4145277;28;20021;-64
2022/09/12 03:45:03;;;;;;;4.15;1.38;;;14.70;99.90;;;;;;4144308;28;20073;-71
2022/09/12 03:47:04;;;;;;;2.20;1.38;;;14.70;99.90;;;;;;4150854;28;20045;-70
2022/09/12 03:49:05;;;;;;;2.00;1.88;;;14.70;99.90;;;;;;4162090;28;20579;-64
2022/09/12 03:51:09;;;;;;;2.03;1.90;;;14.70;99.90;;;;;;4159713;28;20096;-64
2022/09/12 03:53:10;;;;;;;2.03;1.92;;;14.60;99.90;;;;;;4145159;28;20044;-65
2022/09/12 03:55:11;;;;;;;2.85;1.95;;;14.60;99.90;;;;;;4146226;28;20053;-66
2022/09/12 03:57:12;;;;;;;2.88;1.60;;;14.60;99.90;;;;;;4144505;28;20030;-66
2022/09/12 03:59:13;;;;;;;2.20;2.00;;;14.60;99.90;;;;;;4144973;28;20088;-65
2022/09/12 04:01:17;;;;;;;2.83;2.00;;;14.60;99.90;;;;;;4144810;28;20042;-65
2022/09/12 04:03:18;;;;;;;2.45;1.95;;;14.60;99.90;;;;;;4146124;28;20033;-64
2022/09/12 04:05:19;;;;;;;2.20;1.77;;;14.60;99.90;;;;;;4144963;28;20168;-65
2022/09/12 04:07:20;;;;;;;5.60;1.98;;;14.50;99.90;;;;;;4145682;28;20429;-63
2022/09/12 04:09:22;;;;;;;3.08;1.95;;;14.50;99.90;;;;;;4144070;28;20294;-66
2022/09/12 04:11:23;;;;;;;2.35;2.08;;;14.40;99.90;;;;;;4145409;28;20438;-65
2022/09/12 04:13:24;;;;;;;4.05;1.73;;;14.40;99.90;;;;;;4144738;28;20029;-64
2022/09/12 04:15:25;;;;;;;3.40;1.85;;;14.40;99.90;;;;;;4145309;28;20045;-64
2022/09/12 04:17:27;;;;;;;5.68;2.10;;;14.40;99.90;;;;;;4146142;28;20100;-63
2022/09/12 04:19:28;;;;;;;3.30;2.13;;;14.40;99.90;;;;;;4144079;28;20398;-63
2022/09/12 04:21:29;;;;;;;2.40;2.20;;;14.40;99.90;;;;;;4144692;28;20104;-64
2022/09/12 04:23:30;;;;;;;2.13;1.65;;;14.40;99.90;;;;;;4144152;28;20030;-64
2022/09/12 04:25:32;;;;;;;2.65;2.10;;;14.30;99.90;;;;;;4145347;28;20088;-65
2022/09/12 04:27:33;;;;;;;3.10;1.98;;;14.30;99.90;;;;;;4144333;28;20367;-66
2022/09/12 04:29:34;;;;;;;2.58;2.20;;;14.30;99.90;;;;;;4144336;28;20498;-64
2022/09/12 04:31:35;;;;;;;2.13;1.90;;;14.30;99.90;;;;;;4144628;28;20097;-63
2022/09/12 04:33:37;;;;;;;3.25;2.05;;;14.30;99.90;;;;;;4146238;28;20202;-64
2022/09/12 04:35:38;;;;;;;4.20;2.90;;;14.20;99.90;;;;;;4159752;28;20038;-63
2022/09/12 04:37:39;;;;;;;2.83;1.98;;;14.20;99.90;;;;;;4145360;28;20140;-64
2022/09/12 04:39:40;;;;;;;2.60;2.17;;;14.20;99.90;;;;;;4131609;28;20121;-64
2022/09/12 04:41:41;;;;;;;5.20;2.80;;;14.20;99.90;;;;;;4138563;28;20067;-64
2022/09/12 04:43:45;;;;;;;7.32;2.50;;;14.20;99.90;;;;;;4144440;28;20050;-64
2022/09/12 04:45:46;;;;;;;2.50;1.98;;;14.20;99.90;;;;;;4145264;28;20107;-63
2022/09/12 04:47:47;;;;;;;4.55;2.20;;;14.10;99.90;;;;;;4144913;28;20038;-64
2022/09/12 04:49:50;;;;;;;2.00;1.80;;;14.10;99.90;;;;;;4145034;28;20080;-63
2022/09/12 04:51:53;;;;;;;8.05;2.40;;;14.10;99.90;;;;;;4144248;28;20049;-65
2022/09/12 04:54:00;;;;;;;3.22;2.22;;;14.20;99.90;;;;;;4161013;28;20045;-64
2022/09/12 04:56:05;;;;;;;2.95;1.98;;;14.10;99.90;;;;;;4161372;28;20041;-64
2022/09/12 04:58:06;;;;;;;2.80;1.92;;;14.20;99.90;;;;;;4153488;28;20072;-63
2022/09/12 05:00:13;;;;;;;3.78;1.98;;;14.20;99.90;;;;;;4145070;28;20042;-64
2022/09/12 05:02:15;;;;;;;4.37;2.20;;;14.20;99.90;;;;;;4140746;28;20010;-65
2022/09/12 05:04:16;;;;;;;2.30;1.98;;;14.20;99.90;;;;;;4145288;28;20030;-65
2022/09/12 05:06:20;;;;;;;3.10;1.77;;;14.20;99.90;;;;;;4143764;28;20425;-65
2022/09/12 05:08:21;;;;;;;4.43;2.13;;;14.30;99.90;;;;;;4144694;28;20038;-65
2022/09/12 05:10:22;;;;;;;2.43;1.90;;;14.30;99.90;;;;;;4143173;28;20778;-66
2022/09/12 05:12:24;;;;;;;3.40;1.80;;;14.30;99.90;;;;;;4144574;28;20050;-64
2022/09/12 05:14:25;;;;;;;5.20;1.92;;;14.30;99.90;;;;;;4143527;28;20075;-66
2022/09/12 05:16:27;;;;;;;2.95;2.17;;;14.60;99.90;;;;;;4144333;28;20049;-65
2022/09/12 05:18:31;;;;;;;3.00;2.07;;;14.60;99.90;;;;;;4143618;28;20041;-64
2022/09/12 05:20:33;;;;;;;5.87;2.33;;;14.50;99.90;;;;;;4144977;28;20038;-65
2022/09/12 05:22:34;;;;;;;3.50;2.17;;;14.40;99.90;;;;;;4143585;28;20474;-65
2022/09/12 05:24:38;;;;;;;3.20;1.80;;;14.30;99.90;;;;;;4144448;28;20026;-63
2022/09/12 05:26:39;;;;;;;2.45;1.88;;;14.30;99.90;;;;;;4143149;28;20034;-66
2022/09/12 05:28:41;;;;;;;5.43;1.98;;;14.40;99.90;;;;;;4144333;28;20026;-67
2022/09/12 05:30:42;;;;;;;2.57;1.87;;;14.30;99.90;;;;;;4144784;28;20092;-64
2022/09/12 05:32:43;;;;;;;2.50;2.30;;;14.30;99.90;;;;;;4144180;28;20033;-65
2022/09/12 05:34:44;;;;;;;4.13;1.75;;;14.30;99.90;;;;;;4144598;28;20080;-65
2022/09/12 05:36:45;;;;;;;2.30;2.10;;;14.30;99.90;;;;;;4143267;28;20436;-64
2022/09/12 05:38:47;;;;;;;6.30;2.13;;;14.20;99.90;;;;;;4144689;28;20072;-65
2022/09/12 05:40:48;;;;;;;4.70;2.03;;;14.30;99.90;;;;;;4143295;28;20026;-65
2022/09/12 05:42:49;;;;;;;2.30;1.88;;;14.60;99.90;;;;;;4141287;28;20478;-66
2022/09/12 05:44:50;;;;;;;2.33;2.03;;;14.70;99.90;;;;;;4139479;28;20042;-65
2022/09/12 05:46:52;;;;;;;5.55;2.20;;;14.80;99.90;;;;;;4144864;28;20466;-67
2022/09/12 05:48:54;;;;;;;5.60;1.92;;;14.80;99.90;;;;;;4145119;28;20033;-64
2022/09/12 05:51:05;;;;;;;2.92;2.35;;;14.70;99.90;;;;;;4145162;28;20022;-67
2022/09/12 05:53:07;;;;;;;4.07;2.15;;;15.00;99.90;;;;;;4145652;28;20085;-64
2022/09/12 05:55:08;;;;;;;2.70;1.90;;;15.60;99.90;;;;;;4147735;28;20478;-64
2022/09/12 05:57:10;;;;;;;3.30;2.35;;;15.90;99.90;;;;;;4142144;28;20042;-64
2022/09/12 05:59:16;;;;;;;4.63;2.33;;;16.10;99.90;;;;;;4146454;28;20085;-66
2022/09/12 06:01:18;;;;;;;2.97;2.03;;;16.30;99.90;;;;;;4145530;28;20042;-65
2022/09/12 06:03:19;;;;;;;6.15;1.88;;;16.20;99.90;;;;;;4157542;28;20436;-65
2022/09/12 06:05:20;;;;;;;4.05;1.98;;;16.00;99.90;;;;;;4146648;28;20076;-65
2022/09/12 06:07:22;;;;;;;3.08;1.88;;;15.70;99.90;;;;;;4145158;28;20030;-64
2022/09/12 06:09:24;;;;;;;3.25;1.83;;;15.50;99.90;;;;;;4147340;28;20084;-69
2022/09/12 06:11:27;;;;;;;1.80;1.70;;;15.60;99.90;;;;;;4146007;28;20557;-64
2022/09/12 06:13:39;;;;;;;4.07;1.98;;;15.70;99.90;;;;;;4145550;28;20025;-67
2022/09/12 06:15:40;;;;;;;2.60;2.25;;;15.60;99.90;;;;;;4146141;28;20030;-69
2022/09/12 06:17:41;;;;;;;3.25;2.40;;;15.80;99.90;;;;;;4147117;28;20030;-70
2022/09/12 06:19:42;;;;;;;4.38;2.40;;;16.10;99.90;;;;;;4144534;28;20514;-67
2022/09/12 06:21:44;;;;;;;7.13;2.30;;;16.10;99.90;;;;;;4148268;28;20038;-65
2022/09/12 06:23:45;;;;;;;5.95;2.00;;;16.30;99.90;;;;;;4148357;28;20097;-68
2022/09/12 06:25:49;;;;;;;5.55;4.47;;;16.20;99.90;;;;;;4147785;28;20049;-69
2022/09/12 06:27:50;;;;;;;6.05;1.75;;;16.30;99.90;;;;;;4146311;28;20088;-64
2022/09/12 06:29:51;;;;;;;3.58;1.75;;;16.20;99.90;;;;;;4145867;28;20501;-65
2022/09/12 06:31:53;;;;;;;6.28;1.88;;;16.30;99.90;;;;;;4146254;28;20465;-65
2022/09/12 06:33:56;;;;;;;3.88;1.73;;;16.60;99.90;;;;;;4156141;28;20095;-66
2022/09/12 06:36:03;;;;;;;3.05;1.80;;;16.80;99.90;;;;;;4152669;28;20026;-67
2022/09/12 06:38:04;;;;;;;2.60;1.50;;;17.10;99.90;;;;;;4146393;28;20100;-66
2022/09/12 06:40:08;;;;;;;4.07;1.77;;;17.00;99.90;;;;;;4146370;28;20084;-65
2022/09/12 06:42:11;;;;;;;1.90;1.60;;;17.10;99.90;;;;;;4146462;28;20034;-66
2022/09/12 06:44:18;;;;;;;3.33;1.25;;;17.30;99.90;;;;;;4146696;28;20026;-67
2022/09/12 06:46:20;;;;;;;4.10;1.80;;;17.50;99.90;;;;;;4145633;28;20042;-66
2022/09/12 06:48:21;;;;;;;5.47;1.77;;;17.50;99.90;;;;;;4147407;28;20057;-65
2022/09/12 06:50:22;;;;;;;1.65;1.38;;;17.40;99.90;;;;;;4146141;28;20041;-66
2022/09/12 06:52:23;;;;;;;5.85;1.70;;;17.40;99.90;;;;;;4147426;28;20092;-66
2022/09/12 06:54:25;;;;;;;6.47;1.40;;;17.60;99.90;;;;;;4155865;28;20037;-66
2022/09/12 06:56:27;;;;;;;3.58;1.70;;;17.60;99.90;;;;;;4160008;28;20033;-68
2022/09/12 06:58:30;;;;;;;2.60;1.30;;;17.60;99.90;;;;;;4143851;28;20462;-66
2022/09/12 07:00:31;;;;;;;11.75;2.80;;;17.60;99.90;;;;;;4143970;28;20482;-65
2022/09/12 07:02:32;;;;;;;2.47;1.75;;;17.60;99.90;;;;;;4145557;28;20038;-66
2022/09/12 07:04:35;;;;;;;1.75;1.40;;;17.60;99.90;;;;;;4145509;28;20371;-65
2022/09/12 07:06:39;;;;;;;4.28;1.23;;;17.70;99.90;;;;;;4145748;28;20080;-66
2022/09/12 07:08:41;;;;;;;4.05;1.40;;;17.90;99.90;;;;;;4146826;28;20021;-69
2022/09/12 07:10:42;;;;;;;3.90;1.35;;;17.60;99.90;;;;;;4145897;28;20104;-66
2022/09/12 07:12:43;;;;;;;2.25;1.10;;;17.60;99.90;;;;;;4146354;28;20092;-65
2022/09/12 07:14:44;;;;;;;2.50;1.17;;;17.50;99.90;;;;;;4146206;28;20068;-64
2022/09/12 07:16:45;;;;;;;3.35;1.45;;;17.30;99.90;;;;;;4146312;28;20061;-68
2022/09/12 07:18:51;;;;;;;5.25;1.35;;;17.20;99.90;;;;;;4146219;28;20080;-66
2022/09/12 07:20:52;;;;;;;2.08;1.33;;;17.30;99.90;;;;;;4145535;28;20556;-69
2022/09/12 07:22:53;;;;;;;1.83;1.30;;;17.50;99.90;;;;;;4146079;28;20030;-66
2022/09/12 07:24:56;;;;;;;10.52;5.25;;;17.50;99.90;;;;;;4144621;28;20569;-66
2022/09/12 07:26:57;;;;;;;1.88;1.52;;;17.50;99.90;;;;;;4145973;28;20042;-70
2022/09/12 07:28:58;;;;;;;3.92;1.20;;;17.40;99.90;;;;;;4146149;28;20364;-68
2022/09/12 07:31:08;;;;;;;2.17;1.60;;;17.40;99.90;;;;;;4153696;28;20037;-69
2022/09/12 07:33:09;;;;;;;2.63;1.80;;;17.60;99.90;;;;;;4162245;28;20095;-69
2022/09/12 07:35:10;;;;;;;6.10;1.52;;;17.80;99.90;;;;;;4154952;28;20175;-64
2022/09/12 07:37:11;;;;;;;3.55;1.58;;;17.90;99.90;;;;;;4145159;28;20033;-66
2022/09/12 07:39:12;;;;;;;8.45;1.30;;;18.10;99.90;;;;;;4145845;28;20045;-68
2022/09/12 07:41:25;;;;;;;3.38;1.48;;;18.10;99.90;;;;;;4144921;28;20498;-67
2022/09/12 07:43:26;;;;;;;2.05;1.60;;;18.30;99.90;;;;;;4146297;28;20421;-64
2022/09/12 07:45:28;;;;;;;1.70;1.50;;;18.30;99.90;;;;;;4145116;28;20080;-65
2022/09/12 07:47:29;;;;;;;6.35;1.30;;;18.20;99.90;;;;;;4155116;28;20446;-68
2022/09/12 07:49:30;;;;;;;3.42;0.90;;;18.10;99.90;;;;;;4151460;28;20053;-65
2022/09/12 07:51:31;;;;;;;3.72;1.10;;;18.20;99.90;;;;;;4144620;28;20708;-73
2022/09/12 07:53:38;;;;;;;3.63;1.35;;;18.20;99.90;;;;;;4145288;28;20037;-68
2022/09/12 07:55:39;;;;;;;2.53;1.40;;;18.20;99.90;;;;;;4144976;28;20827;-67
2022/09/12 07:57:40;;;;;;;2.30;1.50;;;18.00;99.90;;;;;;4144968;28;20049;-64
2022/09/12 07:59:41;;;;;;;3.25;1.33;;;18.10;99.90;;;;;;4144244;28;20502;-65
2022/09/12 08:01:42;;;;;;;2.58;1.85;;;18.00;99.90;;;;;;4146037;28;20183;-66
2022/09/12 08:03:46;;;;;;;2.25;1.75;;;18.10;99.90;;;;;;4144759;28;20025;-65
2022/09/12 08:05:47;;;;;;;1.50;0.98;;;18.00;99.90;;;;;;4145514;28;20481;-64
2022/09/12 08:07:48;;;;;;;2.35;1.52;;;18.10;99.90;;;;;;4144326;28;20631;-64
2022/09/12 08:09:49;;;;;;;2.63;1.10;;;18.10;99.90;;;;;;4145242;28;20042;-65
2022/09/12 08:11:50;;;;;;;1.30;1.10;;;18.20;99.90;;;;;;4144691;28;20029;-66
2022/09/12 08:13:53;;;;;;;1.77;1.30;;;18.20;99.50;;;;;;4146235;28;20053;-65
2022/09/12 08:16:04;;;;;;;1.95;1.42;;;18.30;99.60;;;;;;4144821;28;20083;-65
2022/09/12 08:18:05;;;;;;;3.45;1.60;;;18.40;99.20;;;;;;4146269;28;20041;-72
2022/09/12 08:20:08;;;;;;;5.82;1.92;;;18.50;99.40;;;;;;4144287;28;20485;-65
2022/09/12 08:22:10;;;;;;;1.25;1.10;;;18.50;99.30;;;;;;4145704;28;20115;-66
2022/09/12 08:24:11;;;;;;;2.97;1.42;;;18.70;99.50;;;;;;4144313;28;20429;-72
2022/09/12 08:26:14;;;;;;;5.90;1.27;;;18.80;99.40;;;;;;4144569;28;20509;-65
2022/09/12 08:28:15;;;;;;;1.42;1.08;;;18.80;99.50;;;;;;4144295;28;20038;-71
2022/09/12 08:30:17;;;;;;;3.15;0.93;;;18.80;98.90;;;;;;4144349;28;20084;-67
2022/09/12 08:32:18;;;;;;;5.80;1.20;;;18.70;98.30;;;;;;4145211;28;20468;-68
2022/09/12 08:34:19;;;;;;;2.35;1.20;;;18.90;98.60;;;;;;4143458;28;20021;-64
2022/09/12 08:36:24;;;;;;;1.98;1.20;;;18.80;98.20;;;;;;4147459;28;20033;-65
2022/09/12 08:38:25;;;;;;;2.28;1.02;;;18.70;98.10;;;;;;4144052;28;20046;-69
2022/09/12 08:40:26;;;;;;;3.13;1.15;;;18.50;98.20;;;;;;4144948;28;20042;-65
2022/09/12 08:43:01;;;;;;;1.42;1.02;;;18.20;98.60;;;;;;4144660;28;20029;-70
2022/09/12 08:45:16;;;;;;;1.77;1.13;;;18.20;97.10;;;;;;4145163;28;20050;-65
2022/09/12 08:47:37;;;;;;;2.10;1.10;;;18.20;96.60;;;;;;4144078;28;20045;-66
2022/09/12 08:49:50;;;;;;;2.63;1.15;;;18.20;96.40;;;;;;4145011;28;20076;-68
2022/09/12 08:51:52;;;;;;;1.98;1.27;;;18.30;97.00;;;;;;4144561;28;20064;-65
2022/09/12 08:53:56;;;;;;;3.35;1.48;;;18.50;97.20;;;;;;4145413;28;20096;-68
2022/09/12 08:55:59;;;;;;;2.17;1.10;;;18.40;96.70;;;;;;4144025;28;20091;-67
2022/09/12 08:58:09;;;;;;;4.20;1.30;;;18.50;97.20;;;;;;4144767;28;20356;-65
2022/09/12 09:00:16;;;;;;;3.17;1.38;;;18.40;96.90;;;;;;4142893;28;20041;-70
2022/09/12 09:02:23;;;;;;;1.50;1.17;;;18.40;97.30;;;;;;4145412;28;20107;-68
2022/09/12 09:04:47;;;;;;;1.98;1.05;;;18.70;97.50;;;;;;4155540;28;20164;-65
2022/09/12 09:07:06;;;;;;;1.60;1.30;;;18.90;96.30;;;;;;4158208;28;20071;-71
2022/09/12 09:09:27;;;;;;;3.67;1.33;;;18.80;96.30;;;;;;4144254;28;20064;-64
2022/09/12 09:11:44;;;;;;;9.63;1.42;;;18.80;96.70;;;;;;4143467;28;20379;-63
2022/09/12 09:16:39;;;;;;;2.40;1.20;;;18.80;96.90;;;;;;4144349;28;20076;-65
2022/09/12 09:18:43;;;;;;;2.03;1.30;;;18.90;97.10;;;;;;4145307;28;20014;-66
2022/09/12 09:21:13;;;;;;;2.90;1.83;;;19.00;97.00;;;;;;4143942;28;20050;-64
2022/09/12 09:23:36;;;;;;;5.38;1.50;;;19.00;96.70;;;;;;4148677;28;20112;-65
2022/09/12 09:26:09;;;;;;;1.92;1.38;;;19.10;96.50;;;;;;4147443;28;20042;-66
2022/09/12 09:28:22;;;;;;;1.52;1.10;;;18.90;96.10;;;;;;4138482;28;20120;-65
2022/09/12 09:30:23;;;;;;;1.33;1.20;;;18.70;96.60;;;;;;4146679;28;20045;-65
2022/09/12 09:32:39;;;;;;;1.52;1.10;;;18.70;97.00;;;;;;4148056;28;20030;-65
2022/09/12 09:34:41;;;;;;;3.35;1.40;;;18.70;97.10;;;;;;4146553;28;20045;-64
2022/09/12 09:36:55;;;;;;;2.47;1.45;;;18.60;97.00;;;;;;4148179;28;20080;-63
2022/09/12 09:39:21;;;;;;;1.25;1.15;;;18.70;96.80;;;;;;4145729;28;20018;-65
2022/09/12 09:41:42;;;;;;;2.00;1.20;;;18.70;96.10;;;;;;4144815;28;20045;-65
2022/09/12 09:43:45;;;;;;;1.73;1.20;;;18.80;96.70;;;;;;4147362;28;20108;-63
2022/09/12 09:45:46;;;;;;;4.55;1.25;;;18.80;96.30;;;;;;4146644;28;20041;-63
2022/09/12 09:48:10;;;;;;;1.73;1.50;;;18.90;95.90;;;;;;4146551;28;20171;-64
2022/09/12 09:50:18;;;;;;;4.72;1.23;;;18.80;96.00;;;;;;4147693;28;20080;-64
2022/09/12 09:52:25;;;;;;;2.75;1.25;;;18.80;95.90;;;;;;4146656;28;20636;-64
2022/09/12 09:54:39;;;;;;;1.52;1.05;;;18.80;96.00;;;;;;4147418;28;20116;-63
2022/09/12 09:56:41;;;;;;;2.40;1.40;;;18.90;95.20;;;;;;4147114;28;20046;-66
2022/09/12 09:58:42;;;;;;;2.00;1.35;;;18.80;95.40;;;;;;4147292;28;20026;-63
2022/09/12 10:00:44;;;;;;;1.85;1.20;;;18.80;95.40;;;;;;4146604;28;20453;-64
2022/09/12 10:03:13;;;;;;;2.47;1.30;;;18.80;95.70;;;;;;4148242;28;20109;-64
2022/09/12 10:05:16;;;;;;;2.30;1.52;;;18.80;95.60;;;;;;4147526;28;20041;-65
2022/09/12 10:07:20;;;;;;;5.80;1.70;;;18.80;95.90;;;;;;4147354;28;20034;-64
2022/09/12 10:09:27;;;;;;;2.83;1.58;;;18.80;95.90;;;;;;4146866;28;20042;-65
2022/09/12 10:11:29;;;;;;;3.05;1.50;;;18.90;95.90;;;;;;4147633;28;20026;-64
2022/09/12 10:13:53;;;;;;;3.08;1.15;;;19.00;96.10;;;;;;4146506;28;20026;-65
2022/09/12 10:15:57;;;;;;;2.20;1.00;;;19.00;95.50;;;;;;4147250;28;20081;-64
2022/09/12 10:17:58;;;;;;;2.35;1.17;;;19.00;95.70;;;;;;4146261;28;20034;-65
2022/09/12 10:20:00;;;;;;;1.40;1.30;;;19.10;95.50;;;;;;4147404;28;20481;-63
2022/09/12 10:22:03;;;;;;;1.65;1.00;;;19.00;95.10;;;;;;4146177;28;20080;-65
2022/09/12 10:24:23;;;;;;;1.42;1.30;;;19.00;95.10;;;;;;4143245;28;20030;-64
2022/09/12 10:26:25;;;;;;;3.25;1.30;;;19.00;95.00;;;;;;4129871;28;20034;-63
2022/09/12 10:28:34;;;;;;;2.28;1.40;;;19.00;95.50;;;;;;4141157;28;20030;-64
2022/09/12 10:30:35;;;;;;;4.22;1.50;;;18.90;95.60;;;;;;4142586;28;20034;-63
2022/09/12 10:32:40;;;;;;;5.18;1.65;;;18.90;95.70;;;;;;4147105;28;20033;-65
2022/09/12 10:34:44;;;;;;;2.17;1.13;;;18.90;96.00;;;;;;4145879;28;20033;-63
2022/09/12 10:36:45;;;;;;;2.72;1.17;;;18.80;95.90;;;;;;4146649;28;20073;-64
2022/09/12 10:39:05;;;;;;;2.20;1.17;;;18.70;95.40;;;;;;4147070;28;20046;-63
2022/09/12 10:41:09;;;;;;;1.67;1.58;;;18.50;95.30;;;;;;4147461;28;20510;-64
2022/09/12 10:43:28;;;;;;;2.85;1.10;;;18.60;95.00;;;;;;4145928;28;20092;-64
2022/09/12 10:45:34;;;;;;;2.10;1.20;;;18.60;94.40;;;;;;4130927;28;20026;-64
2022/09/12 10:47:36;;;;;;;4.50;1.45;;;18.60;94.70;;;;;;4129916;28;20029;-63
2022/09/12 10:49:39;;;;;;;1.77;0.93;;;18.60;94.80;;;;;;4143742;28;20088;-63
2022/09/12 10:51:41;;;;;;;3.45;1.00;;;18.60;93.60;;;;;;4146296;28;20057;-64
2022/09/12 10:53:45;;;;;;;2.00;0.93;;;18.50;93.70;;;;;;4147402;28;20564;-64
2022/09/12 10:56:08;;;;;;;1.40;1.10;;;18.50;93.10;;;;;;4145981;28;20025;-63
2022/09/12 10:58:28;;;;;;;0.90;0.80;;;18.50;92.30;;;;;;4145483;28;20161;-64
2022/09/12 11:00:36;;;;;;;1.38;0.77;;;18.60;91.90;;;;;;4145392;28;20053;-64
2022/09/12 11:02:47;;;;;;;1.25;0.90;;;18.70;92.90;;;;;;4147055;28;20034;-64